Date,TemperatureHighF,TemperatureAvgF,TemperatureLowF,DewpointHighF,DewpointAvgF,DewpointLowF,HumidityHigh,HumidityAvg,HumidityLow,PressureMaxIn,PressureMinIn,WindSpeedMaxMPH,WindSpeedAvgMPH,GustSpeedMaxMPH,PrecipitationSumIn
2013-12-1,34.1,29.0,23.2,26.0,24.5,21.0,92,83,73,30.13,29.90,4,1,7,0.00
2013-12-2,38.7,31.9,22.7,33.0,29.4,21.0,94,90,77,29.90,29.57,10,5,16,0.07
2013-12-3,34.2,33.3,31.7,33.0,32.6,31.0,97,97,94,29.70,29.56,10,4,13,0.10
2013-12-4,35.8,30.3,16.6,35.0,29.3,13.0,98,95,85,29.71,29.40,16,6,27,0.15
2013-12-5,15.9,7.9,2.2,13.0,3.3,-2.0,86,81,76,30.37,29.72,19,7,29,0.15
2013-12-6,7.8,1.3,-3.5,2.0,-3.4,-8.0,83,80,76,30.66,30.35,10,4,14,0.00
2013-12-7,7.4,0.4,-6.5,0.0,-5.4,-11.0,82,77,63,30.76,30.61,10,3,12,0.00
2013-12-8,12.9,9.4,5.8,10.0,6.4,0.0,90,87,77,30.60,30.02,11,4,14,0.00
2013-12-9,10.5,0.6,-4.6,8.0,-3.3,-9.0,90,84,77,30.17,29.98,13,4,21,0.00
2013-12-10,13.5,7.7,0.0,11.0,3.8,-4.0,91,84,74,30.24,29.85,16,6,25,0.00
2013-12-11,13.9,-1.1,-6.9,11.0,-6.5,-12.0,89,78,70,30.57,30.24,17,4,17,0.00
2013-12-12,21.0,12.2,0.5,15.0,7.9,-4.0,90,82,75,30.42,30.14,11,3,17,0.00
2013-12-13,20.3,16.2,12.2,14.0,12.1,10.0,92,84,76,30.20,30.09,12,4,15,0.00
2013-12-14,14.9,11.9,1.7,11.0,8.6,-3.0,89,86,82,30.20,30.05,10,4,16,0.00
2013-12-15,5.2,2.3,-1.0,-2.0,-3.4,-5.0,83,77,70,30.15,30.07,8,4,14,0.00
2013-12-16,19.8,10.1,2.6,17.0,6.6,-3.0,93,86,75,30.15,29.99,10,4,14,0.00
2013-12-17,29.8,22.6,10.3,26.0,18.4,8.0,90,84,76,30.09,29.91,19,6,26,0.00
2013-12-18,35.2,24.1,7.7,30.0,20.3,5.0,91,85,76,30.08,29.68,15,4,23,0.00
2013-12-19,28.2,21.4,19.1,26.0,18.3,15.0,93,87,83,29.95,29.77,13,4,17,0.00
2013-12-20,19.6,18.2,16.6,18.0,15.9,14.0,93,90,87,29.93,29.83,8,2,14,0.00
2013-12-21,22.7,20.0,17.6,20.0,17.4,16.0,93,89,86,29.92,29.82,8,3,17,0.00
2013-12-22,20.5,14.5,-1.4,18.0,11.6,-5.0,90,88,85,30.21,29.84,11,5,15,0.00
2013-12-23,0.6,-5.9,-9.7,-3.0,-10.4,-14.0,85,81,76,30.54,30.22,11,4,15,0.00
2013-12-24,6.5,-2.2,-12.2,4.0,-6.5,-16.0,88,82,64,30.55,30.23,16,6,21,0.00
2013-12-25,26.7,15.0,6.8,25.0,12.4,4.0,93,89,81,30.22,30.07,9,4,19,0.00
2013-12-26,26.0,21.6,13.0,22.0,18.9,10.0,93,89,85,30.16,30.07,4,1,7,0.01
2013-12-27,37.3,27.2,17.0,32.0,24.3,16.0,95,89,80,30.16,29.94,12,4,18,0.01
2013-12-28,36.8,30.6,19.7,33.0,27.5,18.0,96,88,80,30.00,29.67,12,5,21,0.01
2013-12-29,28.4,3.7,-11.3,27.0,-1.0,-17.0,94,80,66,30.32,29.83,15,7,23,0.01
2013-12-30,0.8,-6.5,-15.0,-2.0,-10.3,-19.0,88,83,78,30.33,30.21,6,2,10,0.00
2013-12-31,1.7,-2.7,-8.9,-1.0,-6.2,-13.0,87,85,80,30.40,30.23,5,2,7,0.00